Time;durP1;ratioP1;P1;durP2;ratioP2;P2;SDS_P1;SDS_P2;PMS_P1;PMS_P2;Temp;Humidity;BMP_temperature;BMP_pressure;BME280_temperature;BME280_humidity;BME280_pressure;Samples;Min_cycle;Max_cycle;Signal;HPM_P1;HPM_P2
2023/04/17 00:01:10;;;;;;;18.77;10.95;;;;;;;;;;6205388;28;20580;-80
2023/04/17 00:04:12;;;;;;;19.70;9.52;;;;;;;;;;6205571;28;20140;-79
2023/04/17 00:07:14;;;;;;;17.77;9.90;;;;;;;;;;6211179;28;20042;-79
2023/04/17 00:10:15;;;;;;;18.02;10.38;;;;;;;;;;6214247;28;20053;-79
2023/04/17 00:13:17;;;;;;;16.90;10.82;;;;;;;;;;6211613;28;20045;-77
2023/04/17 00:16:18;;;;;;;19.60;11.18;;;;;;;;;;6213154;28;20119;-78
2023/04/17 00:19:20;;;;;;;17.35;9.40;;;;;;;;;;6214124;28;20131;-78
2023/04/17 00:22:22;;;;;;;16.40;9.27;;;;;;;;;;6210197;28;20176;-79
2023/04/17 00:25:24;;;;;;;16.38;10.40;;;;;;;;;;6213185;28;20172;-79
2023/04/17 00:28:25;;;;;;;22.35;11.60;;;;;;;;;;6212341;28;21006;-76
2023/04/17 00:31:27;;;;;;;18.63;11.00;;;;;;;;;;6214122;28;20125;-80
2023/04/17 00:34:29;;;;;;;19.05;11.30;;;;;;;;;;6213228;28;20515;-75
2023/04/17 00:37:31;;;;;;;18.17;10.57;;;;;;;;;;6225959;28;20054;-78
2023/04/17 00:40:33;;;;;;;21.50;10.48;;;;;;;;;;6214029;28;20045;-80
2023/04/17 00:43:35;;;;;;;17.02;9.82;;;;;;;;;;6211132;28;20057;-78
2023/04/17 00:46:36;;;;;;;20.60;11.88;;;;;;;;;;6211389;28;20077;-77
2023/04/17 00:49:38;;;;;;;21.10;11.52;;;;;;;;;;6215200;28;20038;-78
2023/04/17 00:52:40;;;;;;;17.27;11.40;;;;;;;;;;6209976;28;20094;-80
2023/04/17 00:55:47;;;;;;;18.48;11.20;;;;;;;;;;6211367;28;20526;-79
2023/04/17 00:58:49;;;;;;;22.05;11.80;;;;;;;;;;6212932;28;21072;-81
2023/04/17 01:01:51;;;;;;;21.13;11.23;;;;;;;;;;6211131;28;20042;-77
2023/04/17 01:04:53;;;;;;;18.95;11.02;;;;;;;;;;6211405;28;20445;-79
2023/04/17 01:07:56;;;;;;;21.77;11.73;;;;;;;;;;6209731;28;20157;-79
2023/04/17 01:10:58;;;;;;;22.73;12.05;;;;;;;;;;6222204;28;20050;-78
2023/04/17 01:13:59;;;;;;;19.73;12.10;;;;;;;;;;6209788;28;20041;-78
2023/04/17 01:17:01;;;;;;;20.98;11.20;;;;;;;;;;6213138;28;20043;-76
2023/04/17 01:20:09;;;;;;;18.88;11.35;;;;;;;;;;6210483;28;20053;-78
2023/04/17 01:23:11;;;;;;;22.70;11.55;;;;;;;;;;6189125;28;20057;-79
2023/04/17 01:26:24;;;;;;;21.05;11.77;;;;;;;;;;6203033;28;20125;-77
2023/04/17 01:29:26;;;;;;;20.65;12.13;;;;;;;;;;6210911;28;20128;-81
2023/04/17 01:32:29;;;;;;;;;;;;;;;;;;6200516;28;20070;-78
2023/04/17 01:35:32;;;;;;;18.88;10.98;;;;;;;;;;6204671;28;19921;-78
2023/04/17 01:38:34;;;;;;;21.40;11.98;;;;;;;;;;6201636;28;21248;-79
2023/04/17 01:41:36;;;;;;;20.27;11.75;;;;;;;;;;6211585;28;20046;-78
2023/04/17 01:44:38;;;;;;;17.63;11.23;;;;;;;;;;6205564;28;20038;-78
2023/04/17 01:47:39;;;;;;;22.05;12.98;;;;;;;;;;6211874;28;20065;-76
2023/04/17 01:50:42;;;;;;;25.03;13.57;;;;;;;;;;6193953;28;20088;-77
2023/04/17 01:53:43;;;;;;;31.88;15.20;;;;;;;;;;6189968;28;20069;-79
2023/04/17 01:56:45;;;;;;;28.95;13.80;;;;;;;;;;6222503;28;20496;-77
2023/04/17 01:59:47;;;;;;;26.23;13.27;;;;;;;;;;6207453;28;20049;-79
2023/04/17 02:02:49;;;;;;;23.23;12.95;;;;;;;;;;6207524;28;20124;-77
2023/04/17 02:05:53;;;;;;;23.42;13.02;;;;;;;;;;6209270;28;20499;-78
2023/04/17 02:08:55;;;;;;;26.58;13.88;;;;;;;;;;6213929;28;20041;-79
2023/04/17 02:11:56;;;;;;;22.55;12.93;;;;;;;;;;6202158;28;20105;-80
2023/04/17 02:14:59;;;;;;;21.85;12.05;;;;;;;;;;6228268;28;20041;-79
2023/04/17 02:18:02;;;;;;;;;;;;;;;;;;6211781;28;20053;-78
2023/04/17 02:21:04;;;;;;;23.63;12.48;;;;;;;;;;6210558;28;19929;-78
2023/04/17 02:24:09;;;;;;;22.65;13.38;;;;;;;;;;6227419;28;20127;-81
2023/04/17 02:27:13;;;;;;;27.23;13.48;;;;;;;;;;6195816;28;20053;-79
2023/04/17 02:30:17;;;;;;;24.25;13.88;;;;;;;;;;6211933;28;20041;-78
2023/04/17 02:33:19;;;;;;;25.75;13.88;;;;;;;;;;6193529;28;20049;-79
2023/04/17 02:36:21;;;;;;;27.95;14.02;;;;;;;;;;6209996;28;20045;-79
2023/04/17 02:39:24;;;;;;;25.35;14.65;;;;;;;;;;6199254;28;20045;-79
2023/04/17 02:42:25;;;;;;;31.07;14.27;;;;;;;;;;6204781;28;20458;-79
2023/04/17 02:45:27;;;;;;;28.80;14.18;;;;;;;;;;6209905;28;20057;-78
2023/04/17 02:48:29;;;;;;;26.45;14.73;;;;;;;;;;6211860;28;20076;-79
2023/04/17 02:51:32;;;;;;;27.05;14.75;;;;;;;;;;6207524;28;20045;-79
2023/04/17 02:54:34;;;;;;;27.05;14.40;;;;;;;;;;6225709;28;20042;-76
2023/04/17 02:57:36;;;;;;;28.63;15.00;;;;;;;;;;6208932;28;20038;-79
2023/04/17 03:00:38;;;;;;;28.92;15.45;;;;;;;;;;6205967;28;20523;-77
2023/04/17 03:03:43;;;;;;;28.90;16.15;;;;;;;;;;6206902;28;20415;-78
2023/04/17 03:06:47;;;;;;;26.70;14.82;;;;;;;;;;6200418;28;20085;-77
2023/04/17 03:09:52;;;;;;;30.25;16.33;;;;;;;;;;6208809;28;20057;-78
2023/04/17 03:12:54;;;;;;;34.53;16.42;;;;;;;;;;6182218;28;21107;-77
2023/04/17 03:15:55;;;;;;;26.15;13.75;;;;;;;;;;6198997;28;20042;-79
2023/04/17 03:18:57;;;;;;;27.80;14.27;;;;;;;;;;6206570;28;20129;-77
2023/04/17 03:22:00;;;;;;;26.48;15.27;;;;;;;;;;6205893;28;20050;-78
2023/04/17 03:25:03;;;;;;;25.90;14.77;;;;;;;;;;6206042;28;20121;-78
2023/04/17 03:28:17;;;;;;;;;;;;;;;;;;6207420;28;20076;-77
2023/04/17 03:31:22;;;;;;;26.88;15.35;;;;;;;;;;6196476;28;19928;-77
2023/04/17 03:34:25;;;;;;;25.52;13.65;;;;;;;;;;6186368;28;20133;-78
2023/04/17 03:37:26;;;;;;;28.83;14.90;;;;;;;;;;6206281;28;20046;-77
2023/04/17 03:40:28;;;;;;;27.17;14.02;;;;;;;;;;6219835;28;20046;-77
2023/04/17 03:43:32;;;;;;;30.48;15.18;;;;;;;;;;6206702;28;20070;-78
2023/04/17 03:46:34;;;;;;;28.33;15.73;;;;;;;;;;6209135;28;20496;-79
2023/04/17 03:49:36;;;;;;;27.95;15.77;;;;;;;;;;6196661;28;20065;-77
2023/04/17 03:52:38;;;;;;;30.63;14.77;;;;;;;;;;6210589;28;20046;-79
2023/04/17 03:55:40;;;;;;;27.83;14.82;;;;;;;;;;6211578;28;20042;-78
2023/04/17 03:58:46;;;;;;;31.05;15.60;;;;;;;;;;6194145;28;20056;-77
2023/04/17 04:01:52;;;;;;;28.50;15.50;;;;;;;;;;6207278;28;20088;-77
2023/04/17 04:04:56;;;;;;;27.60;15.27;;;;;;;;;;6188027;28;20041;-77
2023/04/17 04:07:58;;;;;;;28.13;15.68;;;;;;;;;;6209910;28;20038;-78
2023/04/17 04:11:10;;;;;;;28.35;15.77;;;;;;;;;;6212897;28;20045;-79
2023/04/17 04:14:13;;;;;;;29.95;15.98;;;;;;;;;;6208846;28;20040;-79
2023/04/17 04:17:17;;;;;;;27.25;14.70;;;;;;;;;;6209332;28;20046;-78
2023/04/17 04:20:21;;;;;;;27.55;15.35;;;;;;;;;;6211166;28;20415;-79
2023/04/17 04:23:29;;;;;;;30.02;15.02;;;;;;;;;;6211351;28;20052;-78
2023/04/17 04:26:32;;;;;;;;;;;;;;;;;;6196698;28;20119;-77
2023/04/17 04:29:36;;;;;;;29.42;14.48;;;;;;;;;;6213844;28;19928;-77
2023/04/17 04:32:44;;;;;;;29.48;15.52;;;;;;;;;;6229849;28;20038;-79
2023/04/17 04:35:47;;;;;;;29.10;14.55;;;;;;;;;;6211961;28;20038;-78
2023/04/17 04:38:50;;;;;;;28.13;16.02;;;;;;;;;;6210855;28;20042;-79
2023/04/17 04:42:04;;;;;;;31.40;15.50;;;;;;;;;;6214213;28;20052;-79
2023/04/17 04:45:17;;;;;;;28.65;15.18;;;;;;;;;;6209674;28;20045;-78
2023/04/17 04:48:20;;;;;;;;;;;;;;;;;;6226384;28;20041;-79
2023/04/17 04:51:21;;;;;;;28.58;15.45;;;;;;;;;;6208107;28;20003;-79
2023/04/17 04:54:25;;;;;;;31.33;15.73;;;;;;;;;;6206601;28;20056;-77
2023/04/17 04:57:32;;;;;;;29.98;16.10;;;;;;;;;;6190464;28;20053;-76
2023/04/17 05:00:37;;;;;;;30.65;15.48;;;;;;;;;;6197068;28;20099;-77
2023/04/17 05:03:45;;;;;;;29.15;14.85;;;;;;;;;;6163872;28;20069;-78
2023/04/17 05:06:56;;;;;;;31.70;16.25;;;;;;;;;;6176910;28;20038;-76
2023/04/17 05:09:59;;;;;;;31.27;16.10;;;;;;;;;;6166039;28;20475;-77
2023/04/17 05:13:09;;;;;;;28.58;15.55;;;;;;;;;;6184318;28;20077;-78
2023/04/17 05:16:12;;;;;;;29.15;15.98;;;;;;;;;;6184770;28;20373;-76
2023/04/17 05:19:16;;;;;;;26.80;15.23;;;;;;;;;;6183357;28;20508;-78
2023/04/17 05:22:27;;;;;;;24.95;14.25;;;;;;;;;;6198643;28;20132;-77
2023/04/17 05:25:42;;;;;;;28.98;15.20;;;;;;;;;;6185871;28;20046;-77
2023/04/17 05:28:46;;;;;;;26.92;14.65;;;;;;;;;;6185626;28;20054;-78
2023/04/17 05:31:55;;;;;;;32.80;15.77;;;;;;;;;;6184414;28;20042;-76
2023/04/17 05:35:24;;;;;;;32.15;16.40;;;;;;;;;;6187734;28;20050;-77
2023/04/17 05:38:28;;;;;;;31.88;16.73;;;;;;;;;;6172999;28;20049;-76
2023/04/17 05:41:31;;;;;;;30.13;15.95;;;;;;;;;;6165241;28;20055;-76
2023/04/17 05:44:35;;;;;;;31.52;15.80;;;;;;;;;;6196311;28;20120;-78
2023/04/17 05:47:40;;;;;;;30.27;15.88;;;;;;;;;;6179612;28;20058;-78
2023/04/17 05:50:44;;;;;;;30.17;16.08;;;;;;;;;;6183605;28;20067;-75
2023/04/17 05:53:48;;;;;;;30.98;16.60;;;;;;;;;;6184523;28;20046;-76
2023/04/17 05:57:03;;;;;;;27.95;15.77;;;;;;;;;;6186156;28;20050;-76
2023/04/17 06:00:10;;;;;;;28.67;15.55;;;;;;;;;;6201811;28;20062;-77
2023/04/17 06:03:15;;;;;;;28.98;15.57;;;;;;;;;;6202947;28;20095;-78
2023/04/17 06:06:20;;;;;;;28.50;16.05;;;;;;;;;;6218303;28;20483;-76
2023/04/17 06:09:26;;;;;;;31.88;16.75;;;;;;;;;;6188190;28;20042;-77
2023/04/17 06:12:29;;;;;;;33.90;16.80;;;;;;;;;;6235151;22;20040;31
2023/04/17 06:15:31;;;;;;;33.60;17.38;;;;;;;;;;6205065;28;20057;-80
2023/04/17 06:18:33;;;;;;;32.55;16.63;;;;;;;;;;6217179;28;20052;-78
2023/04/17 06:21:34;;;;;;;35.50;16.30;;;;;;;;;;6221575;28;20106;-76
2023/04/17 06:24:36;;;;;;;31.08;15.80;;;;;;;;;;6214680;28;20053;-80
2023/04/17 06:27:38;;;;;;;34.35;16.67;;;;;;;;;;6234624;28;20076;-80
2023/04/17 06:30:40;;;;;;;30.13;16.30;;;;;;;;;;6232310;28;20056;-80
2023/04/17 06:33:42;;;;;;;31.27;16.53;;;;;;;;;;6230673;28;20059;-79
2023/04/17 06:36:44;;;;;;;29.33;15.23;;;;;;;;;;6251112;28;21071;-78
2023/04/17 06:39:48;;;;;;;30.38;15.63;;;;;;;;;;6217593;28;20053;-79
2023/04/17 06:42:51;;;;;;;34.35;17.20;;;;;;;;;;6236665;28;20045;-79
2023/04/17 06:45:54;;;;;;;29.40;16.38;;;;;;;;;;6247007;28;20046;-79
2023/04/17 06:48:58;;;;;;;30.92;16.40;;;;;;;;;;6214704;28;20419;-78
2023/04/17 06:52:02;;;;;;;31.85;16.17;;;;;;;;;;6231387;28;20172;-80
2023/04/17 06:55:04;;;;;;;29.90;15.38;;;;;;;;;;6258248;28;20037;-78
2023/04/17 06:58:07;;;;;;;34.60;16.08;;;;;;;;;;6268796;28;20067;-80
2023/04/17 07:01:10;;;;;;;31.00;15.98;;;;;;;;;;6272042;28;20060;-78
2023/04/17 07:04:12;;;;;;;28.88;16.08;;;;;;;;;;6257881;28;20057;-78
2023/04/17 07:07:14;;;;;;;30.70;16.30;;;;;;;;;;6253111;28;20049;-78
2023/04/17 07:10:18;;;;;;;32.25;17.40;;;;;;;;;;6258902;28;20079;-78
2023/04/17 07:13:20;;;;;;;34.17;19.00;;;;;;;;;;6275913;28;20105;-79
2023/04/17 07:16:21;;;;;;;31.15;17.02;;;;;;;;;;6237768;28;20061;-76
2023/04/17 07:19:23;;;;;;;34.00;17.83;;;;;;;;;;6263685;28;20049;-76
2023/04/17 07:22:25;;;;;;;38.75;18.63;;;;;;;;;;6279674;28;20315;-78
2023/04/17 07:25:28;;;;;;;29.73;17.35;;;;;;;;;;6263569;28;20134;-77
2023/04/17 07:28:29;;;;;;;28.98;15.93;;;;;;;;;;6258802;28;20056;-80
2023/04/17 07:31:31;;;;;;;31.08;16.80;;;;;;;;;;6257860;28;20065;-78
2023/04/17 07:34:33;;;;;;;33.45;16.52;;;;;;;;;;6270761;28;20053;-78
2023/04/17 07:37:35;;;;;;;31.42;15.98;;;;;;;;;;6255937;28;20113;-79
2023/04/17 07:40:38;;;;;;;33.87;17.33;;;;;;;;;;6258523;28;20561;-76
2023/04/17 07:43:40;;;;;;;31.75;15.77;;;;;;;;;;6260053;28;20057;-78
2023/04/17 07:46:43;;;;;;;26.95;13.80;;;;;;;;;;6258893;28;20109;-77
2023/04/17 07:49:47;;;;;;;26.48;13.15;;;;;;;;;;6259093;28;20151;-75
2023/04/17 07:52:49;;;;;;;28.92;13.07;;;;;;;;;;6235982;28;20029;-77
2023/04/17 07:55:51;;;;;;;23.33;11.45;;;;;;;;;;6260117;28;20056;-77
2023/04/17 07:58:53;;;;;;;17.52;9.73;;;;;;;;;;6258515;28;20041;-78
2023/04/17 08:01:56;;;;;;;21.48;11.10;;;;;;;;;;6257042;28;20047;-77
2023/04/17 08:05:00;;;;;;;17.17;10.25;;;;;;;;;;6257341;28;20454;-77
2023/04/17 08:08:03;;;;;;;17.60;9.98;;;;;;;;;;6255817;28;20041;-78
2023/04/17 08:11:05;;;;;;;18.75;10.38;;;;;;;;;;6253563;28;20067;-79
2023/04/17 08:14:06;;;;;;;22.50;11.57;;;;;;;;;;6274908;28;20045;-76
2023/04/17 08:17:09;;;;;;;20.17;10.98;;;;;;;;;;6275179;28;20086;-76
2023/04/17 08:20:12;;;;;;;21.00;11.23;;;;;;;;;;6255225;28;20064;-78
2023/04/17 08:23:14;;;;;;;19.65;11.10;;;;;;;;;;6257307;28;20101;-78
2023/04/17 08:26:19;;;;;;;19.85;10.50;;;;;;;;;;6271485;28;20260;-80
2023/04/17 08:29:21;;;;;;;18.90;10.13;;;;;;;;;;6251457;28;20484;-78
2023/04/17 08:32:22;;;;;;;17.55;10.10;;;;;;;;;;6256610;28;20057;-79
2023/04/17 08:35:25;;;;;;;18.02;9.73;;;;;;;;;;6272028;28;20053;-78
2023/04/17 08:38:29;;;;;;;15.57;9.93;;;;;;;;;;6257494;28;20045;-78
2023/04/17 08:41:39;;;;;;;18.02;9.65;;;;;;;;;;6259735;28;20130;-78
2023/04/17 08:44:41;;;;;;;16.75;9.50;;;;;;;;;;6256824;28;20680;-77
2023/04/17 08:47:43;;;;;;;14.40;8.15;;;;;;;;;;6279334;28;20057;-79
2023/04/17 08:50:52;;;;;;;14.07;8.35;;;;;;;;;;6255389;28;20172;-78
2023/04/17 08:53:54;;;;;;;13.63;7.70;;;;;;;;;;6265712;28;20046;-78
2023/04/17 08:56:56;;;;;;;16.97;9.17;;;;;;;;;;6257788;28;20833;-78
2023/04/17 08:59:59;;;;;;;15.82;8.32;;;;;;;;;;6259189;28;20050;-76
2023/04/17 09:03:03;;;;;;;13.63;8.27;;;;;;;;;;6251505;28;20148;-78
2023/04/17 09:06:05;;;;;;;11.10;7.57;;;;;;;;;;6252486;28;20050;-77
2023/04/17 09:09:07;;;;;;;15.32;8.27;;;;;;;;;;6255666;28;20080;-77
2023/04/17 09:12:09;;;;;;;14.88;8.48;;;;;;;;;;6256655;28;20056;-78
2023/04/17 09:15:16;;;;;;;15.50;8.15;;;;;;;;;;6255270;28;20049;-78
2023/04/17 09:18:26;;;;;;;12.75;7.57;;;;;;;;;;6244935;28;20049;-78
2023/04/17 09:21:28;;;;;;;13.35;8.25;;;;;;;;;;6257403;28;20091;-78
2023/04/17 09:24:34;;;;;;;12.55;8.13;;;;;;;;;;6248789;28;20053;-77
2023/04/17 09:27:35;;;;;;;13.13;7.68;;;;;;;;;;6245859;28;20098;-75
2023/04/17 09:30:40;;;;;;;13.18;7.60;;;;;;;;;;6245667;28;20049;-76
2023/04/17 09:34:06;;;;;;;13.02;7.78;;;;;;;;;;6231426;28;20045;-78
2023/04/17 09:37:08;;;;;;;14.70;8.68;;;;;;;;;;6242256;28;20045;-77
2023/04/17 09:40:10;;;;;;;16.10;9.30;;;;;;;;;;6254712;28;20037;-76
2023/04/17 09:43:16;;;;;;;15.70;9.50;;;;;;;;;;6249121;28;20049;-76
2023/04/17 09:46:47;;;;;;;17.60;9.98;;;;;;;;;;6250564;28;20040;-77
2023/04/17 09:49:54;;;;;;;15.20;8.65;;;;;;;;;;6224837;28;21628;-79
2023/04/17 09:52:56;;;;;;;12.13;7.97;;;;;;;;;;6235965;28;20057;-78
2023/04/17 09:56:00;;;;;;;15.90;8.10;;;;;;;;;;6240251;28;20448;-77
2023/04/17 09:59:04;;;;;;;14.68;7.97;;;;;;;;;;6242130;28;21959;-77
2023/04/17 10:02:10;;;;;;;13.43;8.45;;;;;;;;;;6244783;28;20109;-77
2023/04/17 10:05:12;;;;;;;13.10;8.50;;;;;;;;;;6249468;28;20053;-77
2023/04/17 10:08:15;;;;;;;12.48;8.20;;;;;;;;;;6228881;28;20049;-76
2023/04/17 10:11:18;;;;;;;14.05;8.98;;;;;;;;;;6244930;28;20060;-78
2023/04/17 10:14:45;;;;;;;14.57;9.15;;;;;;;;;;6262833;28;20160;-76
2023/04/17 10:17:48;;;;;;;12.82;8.10;;;;;;;;;;6247013;28;20056;-78
2023/04/17 10:20:52;;;;;;;12.20;7.90;;;;;;;;;;6231002;28;20041;-77
2023/04/17 10:23:55;;;;;;;12.88;7.60;;;;;;;;;;6247386;28;20156;-75
2023/04/17 10:26:56;;;;;;;12.27;8.05;;;;;;;;;;6261783;28;20033;-77
2023/04/17 10:30:01;;;;;;;12.70;7.80;;;;;;;;;;6223289;28;20041;-77
2023/04/17 10:33:12;;;;;;;11.00;7.07;;;;;;;;;;6238608;28;20053;-76
2023/04/17 10:36:39;;;;;;;15.60;8.20;;;;;;;;;;6254458;28;20041;-79
2023/04/17 10:39:55;;;;;;;9.88;6.85;;;;;;;;;;6236306;28;20053;-78
2023/04/17 10:43:12;;;;;;;11.02;6.40;;;;;;;;;;6241294;28;20045;-76
2023/04/17 10:46:14;;;;;;;7.45;4.53;;;;;;;;;;6240879;28;20068;-78
2023/04/17 10:49:16;;;;;;;8.50;4.78;;;;;;;;;;6247630;28;20065;-75
2023/04/17 10:52:38;;;;;;;6.95;4.60;;;;;;;;;;6249595;28;20053;-77
2023/04/17 10:55:49;;;;;;;5.38;4.25;;;;;;;;;;6247712;28;20089;-77
2023/04/17 10:58:59;;;;;;;6.10;4.35;;;;;;;;;;6243225;28;20064;-77
2023/04/17 11:02:03;;;;;;;7.93;4.97;;;;;;;;;;6265423;28;20064;-80
2023/04/17 11:05:06;;;;;;;8.65;4.60;;;;;;;;;;6233896;28;20072;-78
2023/04/17 11:08:09;;;;;;;7.20;4.90;;;;;;;;;;6257326;28;20128;-76
2023/04/17 11:11:10;;;;;;;7.00;4.88;;;;;;;;;;6217052;28;20041;-78
2023/04/17 11:14:17;;;;;;;7.45;5.55;;;;;;;;;;6272040;28;20057;-76
2023/04/17 11:17:21;;;;;;;8.45;5.35;;;;;;;;;;6237500;28;20045;-77
2023/04/17 11:20:24;;;;;;;8.75;5.75;;;;;;;;;;6234497;28;20108;-76
2023/04/17 11:23:28;;;;;;;;;;;;;;;;;;6246469;28;20588;-77
2023/04/17 11:26:30;;;;;;;10.65;6.63;;;;;;;;;;6242759;28;19967;-77
2023/04/17 11:29:31;;;;;;;7.97;5.85;;;;;;;;;;6237920;28;20053;-77
2023/04/17 11:32:36;;;;;;;7.50;5.22;;;;;;;;;;6231044;28;20037;-77
2023/04/17 11:35:39;;;;;;;7.80;5.40;;;;;;;;;;6194044;28;20092;-78
2023/04/17 11:38:47;;;;;;;6.65;4.72;;;;;;;;;;6247271;28;20127;-76
2023/04/17 11:41:52;;;;;;;6.20;4.57;;;;;;;;;;6229102;28;20046;-78
2023/04/17 11:45:02;;;;;;;7.45;4.43;;;;;;;;;;6263727;28;20104;-76
2023/04/17 11:48:11;;;;;;;6.53;4.55;;;;;;;;;;6255353;28;20061;-77
2023/04/17 11:51:16;;;;;;;4.88;4.00;;;;;;;;;;6247107;28;20053;-77
2023/04/17 11:54:29;;;;;;;7.07;4.10;;;;;;;;;;6243070;28;20142;-77
2023/04/17 11:57:40;;;;;;;5.20;4.07;;;;;;;;;;6253128;28;20053;-76
2023/04/17 12:00:42;;;;;;;6.05;4.38;;;;;;;;;;6238572;28;20486;-77
2023/04/17 12:03:46;;;;;;;8.07;4.70;;;;;;;;;;6238651;28;20049;-76
2023/04/17 12:06:48;;;;;;;7.18;4.38;;;;;;;;;;6227721;28;20053;-76
2023/04/17 12:09:56;;;;;;;6.35;4.50;;;;;;;;;;6254848;28;20391;-77
2023/04/17 12:12:58;;;;;;;6.43;4.60;;;;;;;;;;6227998;28;20068;-77
2023/04/17 12:16:00;;;;;;;7.40;4.32;;;;;;;;;;6250359;28;20042;-76
2023/04/17 12:19:02;;;;;;;5.00;3.42;;;;;;;;;;6252726;28;20110;-77
2023/04/17 12:22:03;;;;;;;4.28;3.60;;;;;;;;;;6251176;28;20049;-76
2023/04/17 12:25:06;;;;;;;5.25;3.67;;;;;;;;;;6227745;28;20057;-77
2023/04/17 12:28:08;;;;;;;5.32;3.60;;;;;;;;;;6250619;28;20104;-75
2023/04/17 12:31:10;;;;;;;6.15;4.03;;;;;;;;;;6254353;28;20049;-79
2023/04/17 12:34:12;;;;;;;7.25;3.40;;;;;;;;;;6269098;28;20135;-76
2023/04/17 12:37:14;;;;;;;6.93;4.15;;;;;;;;;;6253387;28;20056;-74
2023/04/17 12:40:18;;;;;;;6.57;3.78;;;;;;;;;;6253604;28;20047;-75
2023/04/17 12:43:23;;;;;;;4.63;3.50;;;;;;;;;;6248600;28;20610;-76
2023/04/17 12:46:25;;;;;;;5.68;3.72;;;;;;;;;;6245229;28;20056;-77
2023/04/17 12:49:27;;;;;;;5.40;4.07;;;;;;;;;;6269370;28;20060;-77
2023/04/17 12:52:29;;;;;;;5.20;3.75;;;;;;;;;;6255539;28;20041;-77
2023/04/17 12:55:31;;;;;;;8.30;3.88;;;;;;;;;;6254750;28;20037;-76
2023/04/17 12:58:32;;;;;;;7.03;4.07;;;;;;;;;;6260624;28;20037;-76
2023/04/17 13:01:34;;;;;;;6.90;3.70;;;;;;;;;;6249610;28;20068;-77
2023/04/17 13:04:36;;;;;;;4.97;4.13;;;;;;;;;;6226632;28;20049;-79
2023/04/17 13:07:38;;;;;;;5.35;3.58;;;;;;;;;;6257925;28;20049;-78
2023/04/17 13:10:41;;;;;;;5.60;3.80;;;;;;;;;;6254577;28;20050;-77
2023/04/17 13:13:43;;;;;;;6.93;4.47;;;;;;;;;;6262542;28;20203;-76
2023/04/17 13:16:45;;;;;;;5.47;4.20;;;;;;;;;;6255061;28;20100;-76
2023/04/17 13:19:46;;;;;;;6.47;4.43;;;;;;;;;;6255817;28;20033;-76
2023/04/17 13:22:48;;;;;;;5.25;3.78;;;;;;;;;;6259712;28;20107;-76
2023/04/17 13:25:50;;;;;;;7.53;4.50;;;;;;;;;;6243070;28;20056;-76
2023/04/17 13:28:51;;;;;;;6.20;3.92;;;;;;;;;;6244547;28;20057;-78
2023/04/17 13:31:53;;;;;;;7.07;4.30;;;;;;;;;;6250926;28;20144;-77
2023/04/17 13:34:55;;;;;;;4.47;3.55;;;;;;;;;;6255853;28;20049;-76
2023/04/17 13:38:01;;;;;;;6.30;4.20;;;;;;;;;;6251911;28;20049;-77
2023/04/17 13:41:05;;;;;;;6.50;3.60;;;;;;;;;;6249759;28;20163;-76
2023/04/17 13:44:07;;;;;;;7.28;4.70;;;;;;;;;;6227367;28;20089;-76
2023/04/17 13:47:09;;;;;;;7.05;4.85;;;;;;;;;;6227314;28;20229;-79
2023/04/17 13:50:11;;;;;;;5.53;4.50;;;;;;;;;;6227628;28;20061;-79
2023/04/17 13:53:12;;;;;;;6.70;4.30;;;;;;;;;;6220936;28;20046;-77
2023/04/17 13:56:14;;;;;;;5.70;4.40;;;;;;;;;;6227070;28;20049;-76
2023/04/17 13:59:16;;;;;;;6.22;4.68;;;;;;;;;;6227890;28;20054;-76
2023/04/17 14:02:18;;;;;;;5.47;4.15;;;;;;;;;;6241962;28;20097;-78
2023/04/17 14:05:20;;;;;;;7.38;3.78;;;;;;;;;;6223251;28;20076;-76
2023/04/17 14:08:21;;;;;;;6.93;4.68;;;;;;;;;;6234016;28;20069;-77
2023/04/17 14:11:23;;;;;;;6.85;3.90;;;;;;;;;;6269344;28;20045;-77
2023/04/17 14:14:26;;;;;;;;;;;;;;;;;;6242897;28;20046;-79
2023/04/17 14:17:28;;;;;;;9.48;5.13;;;;;;;;;;6256611;28;20011;-77
2023/04/17 14:20:30;;;;;;;5.88;4.18;;;;;;;;;;6253852;28;20045;-77
2023/04/17 14:23:31;;;;;;;6.20;4.20;;;;;;;;;;6252036;28;20041;-77
2023/04/17 14:26:33;;;;;;;8.13;4.10;;;;;;;;;;6258805;28;20029;-77
2023/04/17 14:29:35;;;;;;;7.03;3.83;;;;;;;;;;6262071;28;20716;-76
2023/04/17 14:32:37;;;;;;;5.72;3.80;;;;;;;;;;6253083;28;20112;-76
2023/04/17 14:35:39;;;;;;;9.43;4.45;;;;;;;;;;6258388;28;20045;-79
2023/04/17 14:38:41;;;;;;;6.70;3.80;;;;;;;;;;6257802;28;20046;-76
2023/04/17 14:41:42;;;;;;;6.22;3.70;;;;;;;;;;6255486;28;20093;-79
2023/04/17 14:44:44;;;;;;;6.25;4.20;;;;;;;;;;6241294;28;20113;-75
2023/04/17 14:47:46;;;;;;;8.40;5.35;;;;;;;;;;6245496;28;20061;-78
2023/04/17 14:50:48;;;;;;;5.00;3.78;;;;;;;;;;6268727;28;20049;-74
2023/04/17 14:53:50;;;;;;;6.47;4.00;;;;;;;;;;6258049;28;20053;-76
2023/04/17 14:56:53;;;;;;;7.32;4.30;;;;;;;;;;6248586;28;20045;-77
2023/04/17 14:59:55;;;;;;;6.75;3.83;;;;;;;;;;6263449;28;20049;-77
2023/04/17 15:02:57;;;;;;;8.27;4.53;;;;;;;;;;6239754;28;20101;-77
2023/04/17 15:06:01;;;;;;;6.50;4.15;;;;;;;;;;6254507;28;20622;-80
2023/04/17 15:09:02;;;;;;;6.95;4.30;;;;;;;;;;6250174;28;20057;-79
2023/04/17 15:12:05;;;;;;;8.35;3.85;;;;;;;;;;6244209;28;20072;-78
2023/04/17 15:15:07;;;;;;;6.50;3.95;;;;;;;;;;6257164;28;20052;-78
2023/04/17 15:18:10;;;;;;;5.38;4.22;;;;;;;;;;6268967;28;20129;-79
2023/04/17 15:21:11;;;;;;;6.20;3.90;;;;;;;;;;6250076;28;20049;-79
2023/04/17 15:24:13;;;;;;;7.18;4.65;;;;;;;;;;6257418;28;20026;-79
2023/04/17 15:27:15;;;;;;;6.32;4.38;;;;;;;;;;6260798;28;20140;-79
2023/04/17 15:30:16;;;;;;;6.18;4.18;;;;;;;;;;6254869;28;20098;-79
2023/04/17 15:33:18;;;;;;;7.50;4.60;;;;;;;;;;6238477;28;20045;-80
2023/04/17 15:36:20;;;;;;;7.45;4.32;;;;;;;;;;6234540;28;20041;-80
2023/04/17 15:39:22;;;;;;;6.05;4.20;;;;;;;;;;6255183;28;20132;-80
2023/04/17 15:42:25;;;;;;;7.93;4.53;;;;;;;;;;6199384;28;20048;-78
2023/04/17 15:45:27;;;;;;;8.80;4.40;;;;;;;;;;6212704;28;20069;-77
2023/04/17 15:48:29;;;;;;;8.55;4.70;;;;;;;;;;6221391;28;20057;-76
2023/04/17 15:51:30;;;;;;;7.78;4.53;;;;;;;;;;6227003;28;20045;-80
2023/04/17 15:54:32;;;;;;;7.05;3.95;;;;;;;;;;6239263;28;20037;-79
2023/04/17 15:57:34;;;;;;;7.25;4.57;;;;;;;;;;6253763;28;20041;-77
2023/04/17 16:00:35;;;;;;;6.53;4.32;;;;;;;;;;6236720;28;20045;-77
2023/04/17 16:03:37;;;;;;;8.35;4.85;;;;;;;;;;6234685;28;20167;-78
2023/04/17 16:06:39;;;;;;;7.55;4.60;;;;;;;;;;6249149;28;20099;-78
2023/04/17 16:09:43;;;;;;;6.82;4.78;;;;;;;;;;6238667;28;20422;-77
2023/04/17 16:12:45;;;;;;;7.55;5.07;;;;;;;;;;6247962;28;20042;-77
2023/04/17 16:15:47;;;;;;;8.20;5.30;;;;;;;;;;6236383;28;20207;-79
2023/04/17 16:18:49;;;;;;;7.63;5.43;;;;;;;;;;6237975;28;20119;-79
2023/04/17 16:21:51;;;;;;;8.07;4.88;;;;;;;;;;6239137;28;20410;-79
2023/04/17 16:24:53;;;;;;;8.50;5.53;;;;;;;;;;6243865;28;20099;-77
2023/04/17 16:27:54;;;;;;;8.85;5.50;;;;;;;;;;6232960;28;20047;-80
2023/04/17 16:30:56;;;;;;;7.30;5.22;;;;;;;;;;6236726;28;20037;-78
2023/04/17 16:33:57;;;;;;;8.27;5.65;;;;;;;;;;6252191;28;20049;-79
2023/04/17 16:36:59;;;;;;;9.02;6.03;;;;;;;;;;6238102;28;20064;-80
2023/04/17 16:40:03;;;;;;;8.68;6.20;;;;;;;;;;6233929;28;20053;-80
2023/04/17 16:43:05;;;;;;;9.93;5.85;;;;;;;;;;6237776;28;20045;-78
2023/04/17 16:46:07;;;;;;;7.75;5.65;;;;;;;;;;6235148;28;20570;-79
2023/04/17 16:49:25;;;;;;;8.60;5.95;;;;;;;;;;6234325;28;20041;-78
2023/04/17 16:52:26;;;;;;;11.75;5.60;;;;;;;;;;6234085;28;20072;-79
2023/04/17 16:55:28;;;;;;;9.25;5.78;;;;;;;;;;6237549;28;20136;-80
2023/04/17 16:58:30;;;;;;;8.98;4.90;;;;;;;;;;6236072;28;20052;-78
2023/04/17 17:01:31;;;;;;;7.47;4.90;;;;;;;;;;6233609;28;20101;-79
2023/04/17 17:04:33;;;;;;;9.05;5.30;;;;;;;;;;6238253;28;20621;-78
2023/04/17 17:07:35;;;;;;;8.43;5.47;;;;;;;;;;6237597;28;20770;-78
2023/04/17 17:10:36;;;;;;;8.38;5.40;;;;;;;;;;6238438;28;20045;-79
2023/04/17 17:13:38;;;;;;;12.48;5.88;;;;;;;;;;6236667;28;20053;-79
2023/04/17 17:16:40;;;;;;;11.20;6.53;;;;;;;;;;6237321;28;20045;-78
2023/04/17 17:19:42;;;;;;;7.72;5.18;;;;;;;;;;6253216;28;20041;-79
2023/04/17 17:22:45;;;;;;;8.75;5.18;;;;;;;;;;6236996;28;20503;-77
2023/04/17 17:25:47;;;;;;;8.40;5.20;;;;;;;;;;6237941;28;20138;-78
2023/04/17 17:28:51;;;;;;;7.95;5.38;;;;;;;;;;6237867;28;20580;-78
2023/04/17 17:31:54;;;;;;;11.57;5.68;;;;;;;;;;6231641;28;20061;-78
2023/04/17 17:34:57;;;;;;;9.45;5.90;;;;;;;;;;6238477;28;20117;-78
2023/04/17 17:38:00;;;;;;;9.60;5.47;;;;;;;;;;6230272;28;20041;-80
2023/04/17 17:41:03;;;;;;;9.77;5.78;;;;;;;;;;6230382;28;20050;-79
2023/04/17 17:44:04;;;;;;;10.38;6.10;;;;;;;;;;6251661;28;20919;-80
2023/04/17 17:47:06;;;;;;;9.73;5.47;;;;;;;;;;6251522;28;20071;-79
2023/04/17 17:50:09;;;;;;;8.10;4.90;;;;;;;;;;6235186;28;20130;-78
2023/04/17 17:53:10;;;;;;;9.80;5.20;;;;;;;;;;6232985;28;20061;-80
2023/04/17 17:56:12;;;;;;;13.35;5.15;;;;;;;;;;6230874;28;21860;-79
2023/04/17 17:59:14;;;;;;;7.45;4.90;;;;;;;;;;6236823;28;20038;-79
2023/04/17 18:02:16;;;;;;;8.10;5.00;;;;;;;;;;6213705;28;20053;-79
2023/04/17 18:05:18;;;;;;;8.15;4.93;;;;;;;;;;6237530;28;20053;-79